createdAt,value
2023-05-10T00:00:19.311Z,16.91
2023-05-10T00:01:21.074Z,16.91
2023-05-10T00:02:22.622Z,16.93
2023-05-10T00:03:24.893Z,16.85
2023-05-10T00:04:28.459Z,16.85
2023-05-10T00:05:30.029Z,16.85
2023-05-10T00:06:31.519Z,16.85
2023-05-10T00:07:33.046Z,16.83
2023-05-10T00:08:34.844Z,16.82
2023-05-10T00:09:36.300Z,16.83
2023-05-10T00:10:38.475Z,16.80
2023-05-10T00:11:40.053Z,16.73
2023-05-10T00:12:41.633Z,16.69
2023-05-10T00:13:43.378Z,16.63
2023-05-10T00:14:44.933Z,16.59
2023-05-10T00:15:46.419Z,16.55
2023-05-10T00:16:47.947Z,16.57
2023-05-10T00:17:49.452Z,16.51
2023-05-10T00:18:51.454Z,16.45
2023-05-10T00:19:52.915Z,16.44
2023-05-10T00:20:54.403Z,16.43
2023-05-10T00:21:55.934Z,16.39
2023-05-10T00:22:57.463Z,16.39
2023-05-10T00:23:59.210Z,16.40
2023-05-10T00:25:00.813Z,16.40
2023-05-10T00:26:02.899Z,16.39
2023-05-10T00:27:05.026Z,16.36
2023-05-10T00:28:06.530Z,16.15
2023-05-10T00:29:08.389Z,16.07
2023-05-10T00:30:10.314Z,16.05
2023-05-10T00:31:11.823Z,16.02
2023-05-10T00:32:14.986Z,15.97
2023-05-10T00:33:16.772Z,15.93
2023-05-10T00:34:18.234Z,15.94
2023-05-10T00:35:19.869Z,15.90
2023-05-10T00:36:22.165Z,15.94
2023-05-10T00:37:23.608Z,15.94
2023-05-10T00:38:25.840Z,15.95
2023-05-10T00:39:29.795Z,15.86
2023-05-10T00:40:31.631Z,15.85
2023-05-10T00:41:33.722Z,15.85
2023-05-10T00:42:35.300Z,15.79
2023-05-10T00:43:37.118Z,15.68
2023-05-10T00:44:38.703Z,15.70
2023-05-10T00:45:41.399Z,15.61
2023-05-10T00:46:42.970Z,15.64
2023-05-10T00:47:44.627Z,15.62
2023-05-10T00:48:46.745Z,15.63
2023-05-10T00:49:48.465Z,15.60
2023-05-10T00:50:50.397Z,15.52
2023-05-10T00:51:52.139Z,15.42
2023-05-10T00:52:53.946Z,15.33
2023-05-10T00:53:57.040Z,15.27
2023-05-10T00:54:58.625Z,15.25
2023-05-10T00:56:00.657Z,15.25
2023-05-10T00:57:02.322Z,15.26
2023-05-10T00:58:04.435Z,15.31
2023-05-10T00:59:05.969Z,15.30
2023-05-10T01:00:08.648Z,15.37
2023-05-10T01:01:10.794Z,15.31
2023-05-10T01:02:14.151Z,15.22
2023-05-10T01:03:15.784Z,15.24
2023-05-10T01:04:17.427Z,15.26
2023-05-10T01:05:19.130Z,15.25
2023-05-10T01:06:20.700Z,15.14
2023-05-10T01:07:22.185Z,15.11
2023-05-10T01:08:23.752Z,15.10
2023-05-10T01:09:27.354Z,15.15
2023-05-10T01:10:29.213Z,15.20
2023-05-10T01:11:31.065Z,15.20
2023-05-10T01:12:33.051Z,15.22
2023-05-10T01:13:40.486Z,15.15
2023-05-10T01:14:42.343Z,15.09
2023-05-10T01:15:43.968Z,15.10
2023-05-10T01:16:46.832Z,15.11
2023-05-10T01:17:50.068Z,15.07
2023-05-10T01:18:52.535Z,14.98
2023-05-10T01:19:54.090Z,14.95
2023-05-10T01:21:24.775Z,14.93
2023-05-10T01:22:47.708Z,14.98
2023-05-10T01:24:14.282Z,14.83
2023-05-10T01:25:34.405Z,14.94
2023-05-10T01:26:36.126Z,14.97
2023-05-10T01:28:02.754Z,14.98
2023-05-10T01:29:19.950Z,15.04
2023-05-10T01:30:49.312Z,15.06
2023-05-10T01:32:12.904Z,15.06
2023-05-10T01:33:27.756Z,14.98
2023-05-10T01:34:39.138Z,15.00
2023-05-10T01:36:13.967Z,15.02
2023-05-10T01:37:26.249Z,15.05
2023-05-10T01:38:30.347Z,15.01
2023-05-10T01:39:48.433Z,15.01
2023-05-10T01:41:08.162Z,15.05
2023-05-10T01:42:17.025Z,15.01
2023-05-10T01:43:29.069Z,15.02
2023-05-10T01:44:37.240Z,15.01
2023-05-10T01:45:48.397Z,15.01
2023-05-10T01:47:01.577Z,15.00
2023-05-10T01:48:08.338Z,15.00
2023-05-10T01:49:16.921Z,15.01
2023-05-10T01:50:24.826Z,15.02
2023-05-10T01:51:39.691Z,15.02
2023-05-10T01:52:45.737Z,15.03
2023-05-10T01:53:49.784Z,15.07
2023-05-10T01:54:56.918Z,15.06
2023-05-10T01:56:00.149Z,15.06
2023-05-10T01:57:06.546Z,15.07
2023-05-10T01:58:11.575Z,15.05
2023-05-10T01:59:18.061Z,15.06
2023-05-10T02:00:21.188Z,15.05
2023-05-10T02:01:23.616Z,15.02
2023-05-10T02:02:27.120Z,14.97
2023-05-10T02:03:30.794Z,15.00
2023-05-10T02:04:34.259Z,15.02
2023-05-10T02:05:37.697Z,15.00
2023-05-10T02:06:41.228Z,15.05
2023-05-10T02:07:43.835Z,15.05
2023-05-10T02:08:47.698Z,14.99
2023-05-10T02:09:49.367Z,14.98
2023-05-10T02:10:56.598Z,15.01
2023-05-10T02:12:00.880Z,15.03
2023-05-10T02:13:04.441Z,15.05
2023-05-10T02:14:10.400Z,15.09
2023-05-10T02:15:14.127Z,15.11
2023-05-10T02:16:18.597Z,15.08
2023-05-10T02:17:21.229Z,15.07
2023-05-10T02:18:24.956Z,15.09
2023-05-10T02:19:29.691Z,15.09
2023-05-10T02:20:33.515Z,15.14
2023-05-10T02:21:36.264Z,15.15
2023-05-10T02:22:39.777Z,15.17
2023-05-10T02:23:41.907Z,15.18
2023-05-10T02:24:46.046Z,15.17
2023-05-10T02:25:50.512Z,15.19
2023-05-10T02:26:56.787Z,15.21
2023-05-10T02:28:00.943Z,15.22
2023-05-10T02:29:05.581Z,15.19
2023-05-10T02:30:08.604Z,15.16
2023-05-10T02:31:11.551Z,15.17
2023-05-10T02:32:13.839Z,15.18
2023-05-10T02:33:16.159Z,15.15
2023-05-10T02:34:18.015Z,15.17
2023-05-10T02:35:20.282Z,15.19
2023-05-10T02:36:23.598Z,15.22
2023-05-10T02:37:26.468Z,15.25
2023-05-10T02:38:28.353Z,15.24
2023-05-10T02:39:32.688Z,15.25
2023-05-10T02:40:36.584Z,15.19
2023-05-10T02:41:39.303Z,15.15
2023-05-10T02:42:43.257Z,15.15
2023-05-10T02:43:46.781Z,15.17
2023-05-10T02:44:50.405Z,15.14
2023-05-10T02:46:12.518Z,15.15
2023-05-10T02:47:14.102Z,15.18
2023-05-10T02:48:16.703Z,15.20
2023-05-10T02:49:19.401Z,15.23
2023-05-10T02:50:22.180Z,15.26
2023-05-10T02:51:29.287Z,15.26
2023-05-10T02:52:40.274Z,15.27
2023-05-10T02:53:45.574Z,15.26
2023-05-10T02:54:51.745Z,15.25
2023-05-10T02:55:58.043Z,15.23
2023-05-10T02:57:01.617Z,15.24
2023-05-10T02:58:04.154Z,15.24
2023-05-10T02:59:06.029Z,15.19
2023-05-10T03:00:08.061Z,15.16
2023-05-10T03:01:09.921Z,15.16
2023-05-10T03:02:13.551Z,15.19
2023-05-10T03:03:15.031Z,15.18
2023-05-10T03:04:16.637Z,15.18
2023-05-10T03:05:18.209Z,15.19
2023-05-10T03:06:19.770Z,15.19
2023-05-10T03:07:22.334Z,15.21
2023-05-10T03:08:24.990Z,15.22
2023-05-10T03:09:26.786Z,15.24
2023-05-10T03:10:31.852Z,15.26
2023-05-10T03:11:41.477Z,15.27
2023-05-10T03:12:53.023Z,15.29
2023-05-10T03:14:30.917Z,15.30
2023-05-10T03:15:49.644Z,15.32
2023-05-10T03:17:01.367Z,15.33
2023-05-10T03:18:08.221Z,15.34
2023-05-10T03:19:27.428Z,15.34
2023-05-10T03:21:03.831Z,15.32
2023-05-10T03:22:13.559Z,15.30
2023-05-10T03:23:36.740Z,15.26
2023-05-10T03:24:41.277Z,15.28
2023-05-10T03:25:44.744Z,15.26
2023-05-10T03:26:46.710Z,15.22
2023-05-10T03:27:50.520Z,15.25
2023-05-10T03:28:53.768Z,15.31
2023-05-10T03:29:57.031Z,15.34
2023-05-10T03:30:59.896Z,15.36
2023-05-10T03:32:01.457Z,15.37
2023-05-10T03:33:09.219Z,15.36
2023-05-10T03:34:11.201Z,15.34
2023-05-10T03:35:15.216Z,15.34
2023-05-10T03:36:17.193Z,15.34
2023-05-10T03:37:18.938Z,15.33
2023-05-10T03:38:20.474Z,15.27
2023-05-10T03:39:22.422Z,15.29
2023-05-10T03:40:24.904Z,15.32
2023-05-10T03:41:26.456Z,15.34
2023-05-10T03:42:27.948Z,15.38
2023-05-10T03:43:29.390Z,15.39
2023-05-10T03:44:30.946Z,15.40
2023-05-10T03:45:32.573Z,15.43
2023-05-10T03:46:34.196Z,15.42
2023-05-10T03:47:36.132Z,15.40
2023-05-10T03:48:38.117Z,15.40
2023-05-10T03:49:39.579Z,15.35
2023-05-10T03:50:41.212Z,15.33
2023-05-10T03:51:42.783Z,15.33
2023-05-10T03:52:44.592Z,15.34
2023-05-10T03:53:46.337Z,15.27
2023-05-10T03:54:47.853Z,15.29
2023-05-10T03:55:49.394Z,15.32
2023-05-10T03:56:52.806Z,15.33
2023-05-10T03:57:54.953Z,15.25
2023-05-10T03:58:56.880Z,15.32
2023-05-10T03:59:58.416Z,15.21
2023-05-10T04:01:00.583Z,15.22
2023-05-10T04:02:02.120Z,15.25
2023-05-10T04:03:03.996Z,15.24
2023-05-10T04:04:05.545Z,15.23
2023-05-10T04:05:07.365Z,15.22
2023-05-10T04:06:10.338Z,15.19
2023-05-10T04:07:11.836Z,15.20
2023-05-10T04:08:13.524Z,15.18
2023-05-10T04:09:14.990Z,15.18
2023-05-10T04:10:17.780Z,15.21
2023-05-10T04:11:19.474Z,15.20
2023-05-10T04:12:21.366Z,15.21
2023-05-10T04:13:23.624Z,15.22
2023-05-10T04:14:25.679Z,15.22
2023-05-10T04:15:27.174Z,15.21
2023-05-10T04:16:29.036Z,15.21
2023-05-10T04:17:30.489Z,15.16
2023-05-10T04:18:33.236Z,15.05
2023-05-10T04:19:34.878Z,14.91
2023-05-10T04:20:36.636Z,14.91
2023-05-10T04:21:38.321Z,14.95
2023-05-10T04:22:40.039Z,14.96
2023-05-10T04:23:42.025Z,14.98
2023-05-10T04:24:43.473Z,15.00
2023-05-10T04:25:45.018Z,15.03
2023-05-10T04:26:46.692Z,15.06
2023-05-10T04:27:48.241Z,15.05
2023-05-10T04:28:49.831Z,15.01
2023-05-10T04:29:51.712Z,15.00
2023-05-10T04:30:53.258Z,14.96
2023-05-10T04:31:56.287Z,14.91
2023-05-10T04:32:57.789Z,14.96
2023-05-10T04:33:59.282Z,14.97
2023-05-10T04:35:00.802Z,14.94
2023-05-10T04:36:05.418Z,14.90
2023-05-10T04:37:07.452Z,14.92
2023-05-10T04:38:09.127Z,14.88
2023-05-10T04:39:10.962Z,14.88
2023-05-10T04:40:12.847Z,14.91
2023-05-10T04:41:14.768Z,14.92
2023-05-10T04:42:16.452Z,14.91
2023-05-10T04:43:18.071Z,14.91
2023-05-10T04:44:19.597Z,14.87
2023-05-10T04:45:21.138Z,14.82
2023-05-10T04:46:22.718Z,14.82
2023-05-10T04:47:24.342Z,14.85
2023-05-10T04:48:26.303Z,14.84
2023-05-10T04:49:27.735Z,14.85
2023-05-10T04:50:29.298Z,14.88
2023-05-10T04:51:31.511Z,14.91
2023-05-10T04:52:33.230Z,14.94
2023-05-10T04:53:34.878Z,14.97
2023-05-10T04:54:36.348Z,14.96
2023-05-10T04:55:37.961Z,14.99
2023-05-10T04:56:39.485Z,14.99
2023-05-10T04:57:41.265Z,14.99
2023-05-10T04:58:42.696Z,14.99
2023-05-10T04:59:44.217Z,15.00
2023-05-10T05:00:45.847Z,15.00
2023-05-10T05:01:48.536Z,14.99
2023-05-10T05:02:50.610Z,15.00
2023-05-10T05:03:53.909Z,15.00
2023-05-10T05:04:58.801Z,14.97
2023-05-10T05:06:00.486Z,14.97
2023-05-10T05:07:02.053Z,14.97
2023-05-10T05:08:03.788Z,14.98
2023-05-10T05:09:05.316Z,14.99
2023-05-10T05:10:08.635Z,14.99
2023-05-10T05:11:10.092Z,14.97
2023-05-10T05:12:14.982Z,14.98
2023-05-10T05:13:16.987Z,14.97
2023-05-10T05:14:18.536Z,14.97
2023-05-10T05:15:20.027Z,14.94
2023-05-10T05:16:21.505Z,14.93
2023-05-10T05:17:23.279Z,14.91
2023-05-10T05:18:24.732Z,14.89
2023-05-10T05:19:26.295Z,14.89
2023-05-10T05:20:27.751Z,14.92
2023-05-10T05:21:29.868Z,14.84
2023-05-10T05:22:31.402Z,14.77
2023-05-10T05:23:33.702Z,14.72
2023-05-10T05:24:39.136Z,14.68
2023-05-10T05:25:40.656Z,14.66
2023-05-10T05:26:42.586Z,14.69
2023-05-10T05:27:44.057Z,14.76
2023-05-10T05:28:45.519Z,14.80
2023-05-10T05:29:47.221Z,14.83
2023-05-10T05:30:48.709Z,14.85
2023-05-10T05:31:50.245Z,14.88
2023-05-10T05:32:51.901Z,14.79
2023-05-10T05:33:53.515Z,14.85
2023-05-10T05:34:54.952Z,14.92
2023-05-10T05:35:56.490Z,14.97
2023-05-10T05:36:58.056Z,15.01
2023-05-10T05:37:59.576Z,15.04
2023-05-10T05:39:01.080Z,15.07
2023-05-10T05:40:02.782Z,15.11
2023-05-10T05:41:04.345Z,15.15
2023-05-10T05:42:06.263Z,15.18
2023-05-10T05:43:07.732Z,15.19
2023-05-10T05:44:09.272Z,15.19
2023-05-10T05:45:14.078Z,15.18
2023-05-10T05:46:16.087Z,15.19
2023-05-10T05:47:18.043Z,15.13
2023-05-10T05:48:19.705Z,15.16
2023-05-10T05:49:21.398Z,15.19
2023-05-10T05:50:22.896Z,15.21
2023-05-10T05:51:24.414Z,15.18
2023-05-10T05:52:26.203Z,15.15
2023-05-10T05:53:27.852Z,15.19
2023-05-10T05:54:29.658Z,15.20
2023-05-10T05:55:32.504Z,15.22
2023-05-10T05:56:34.140Z,15.23
2023-05-10T05:57:35.641Z,15.22
2023-05-10T05:58:37.117Z,15.22
2023-05-10T05:59:42.857Z,15.25
2023-05-10T06:00:44.658Z,15.26
2023-05-10T06:01:46.364Z,15.26
2023-05-10T06:02:48.398Z,15.26
2023-05-10T06:03:51.872Z,15.27
2023-05-10T06:04:54.928Z,15.28
2023-05-10T06:05:56.498Z,15.27
2023-05-10T06:06:57.951Z,15.28
2023-05-10T06:08:01.398Z,15.26
2023-05-10T06:09:03.494Z,15.29
2023-05-10T06:10:05.718Z,15.32
2023-05-10T06:11:07.397Z,15.28
2023-05-10T06:12:08.955Z,15.23
2023-05-10T06:13:11.002Z,15.22
2023-05-10T06:14:14.803Z,15.22
2023-05-10T06:15:16.393Z,15.22
2023-05-10T06:16:18.780Z,15.23
2023-05-10T06:17:20.544Z,15.23
2023-05-10T06:18:21.979Z,15.24
2023-05-10T06:19:27.427Z,15.26
2023-05-10T06:20:29.057Z,15.26
2023-05-10T06:21:31.110Z,15.24
2023-05-10T06:22:32.913Z,15.23
2023-05-10T06:23:34.409Z,15.23
2023-05-10T06:24:35.978Z,15.21
2023-05-10T06:25:37.902Z,15.23
2023-05-10T06:26:42.694Z,15.17
2023-05-10T06:27:50.960Z,15.10
2023-05-10T06:28:56.739Z,15.10
2023-05-10T06:30:11.735Z,15.13
2023-05-10T06:31:14.625Z,15.10
2023-05-10T06:32:16.459Z,15.11
2023-05-10T06:33:18.056Z,15.13
2023-05-10T06:34:19.617Z,15.10
2023-05-10T06:35:21.336Z,15.12
2023-05-10T06:36:24.459Z,15.18
2023-05-10T06:37:29.095Z,15.23
2023-05-10T06:38:30.715Z,15.27
2023-05-10T06:39:32.433Z,15.29
2023-05-10T06:40:34.239Z,15.32
2023-05-10T06:41:35.672Z,15.40
2023-05-10T06:42:37.509Z,15.44
2023-05-10T06:43:42.178Z,15.48
2023-05-10T06:44:44.566Z,15.53
2023-05-10T06:45:46.277Z,15.56
2023-05-10T06:46:48.443Z,15.58
2023-05-10T06:47:51.379Z,15.60
2023-05-10T06:48:54.799Z,15.64
2023-05-10T06:49:56.907Z,15.65
2023-05-10T06:50:58.549Z,15.64
2023-05-10T06:52:00.045Z,15.63
2023-05-10T06:53:02.779Z,15.55
2023-05-10T06:54:04.742Z,15.56
2023-05-10T06:55:06.761Z,15.61
2023-05-10T06:56:08.337Z,15.67
2023-05-10T06:57:23.188Z,15.73
2023-05-10T06:58:32.623Z,15.83
2023-05-10T06:59:34.316Z,15.91
2023-05-10T07:00:35.916Z,15.99
2023-05-10T07:01:37.527Z,16.02
2023-05-10T07:02:39.520Z,16.05
2023-05-10T07:03:43.642Z,16.10
2023-05-10T07:04:45.147Z,16.12
2023-05-10T07:05:46.781Z,16.17
2023-05-10T07:06:48.325Z,16.20
2023-05-10T07:07:50.080Z,16.23
2023-05-10T07:08:51.578Z,16.22
2023-05-10T07:09:53.117Z,16.21
2023-05-10T07:11:07.300Z,16.23
2023-05-10T07:12:11.120Z,16.22
2023-05-10T07:13:13.822Z,16.21
2023-05-10T07:14:15.685Z,16.22
2023-05-10T07:15:17.739Z,16.24
2023-05-10T07:16:19.598Z,16.19
2023-05-10T07:17:21.338Z,16.19
2023-05-10T07:18:23.067Z,16.20
2023-05-10T07:19:25.278Z,16.21
2023-05-10T07:20:26.916Z,16.20
2023-05-10T07:21:29.978Z,16.25
2023-05-10T07:22:31.636Z,16.30
2023-05-10T07:23:33.112Z,16.35
2023-05-10T07:24:34.987Z,16.37
2023-05-10T07:25:36.737Z,16.38
2023-05-10T07:26:38.562Z,16.37
2023-05-10T07:27:40.414Z,16.42
2023-05-10T07:28:42.020Z,16.48
2023-05-10T07:29:43.477Z,16.45
2023-05-10T07:30:45.290Z,16.48
2023-05-10T07:31:47.111Z,16.51
2023-05-10T07:32:48.655Z,16.52
2023-05-10T07:33:50.134Z,16.54
2023-05-10T07:34:51.587Z,16.53
2023-05-10T07:35:53.048Z,16.55
2023-05-10T07:36:54.718Z,16.57
2023-05-10T07:37:56.308Z,16.57
2023-05-10T07:38:58.586Z,16.54
2023-05-10T07:40:00.247Z,16.55
2023-05-10T07:41:02.057Z,16.55
2023-05-10T07:42:04.425Z,16.56
2023-05-10T07:43:06.342Z,16.55
2023-05-10T07:44:07.827Z,16.46
2023-05-10T07:45:12.326Z,16.46
2023-05-10T07:46:16.954Z,16.42
2023-05-10T07:47:18.424Z,16.39
2023-05-10T07:48:19.932Z,16.39
2023-05-10T07:49:21.414Z,16.37
2023-05-10T07:50:25.170Z,16.34
2023-05-10T07:51:27.564Z,16.32
2023-05-10T07:52:29.044Z,16.31
2023-05-10T07:53:33.077Z,16.29
2023-05-10T07:54:34.894Z,16.28
2023-05-10T07:55:36.451Z,16.23
2023-05-10T07:56:37.941Z,16.23
2023-05-10T07:57:39.811Z,16.21
2023-05-10T07:58:43.507Z,16.21
2023-05-10T07:59:45.811Z,16.20
2023-05-10T08:00:50.416Z,16.18
2023-05-10T08:01:51.856Z,16.13
2023-05-10T08:02:53.988Z,16.18
2023-05-10T08:03:55.991Z,16.16
2023-05-10T08:04:58.029Z,16.15
2023-05-10T08:06:04.026Z,16.17
2023-05-10T08:07:07.861Z,16.08
2023-05-10T08:08:10.741Z,16.06
2023-05-10T08:09:12.117Z,16.02
2023-05-10T08:10:13.731Z,16.00
2023-05-10T08:11:15.206Z,15.97
2023-05-10T08:12:19.028Z,15.92
2023-05-10T08:13:22.199Z,15.95
2023-05-10T08:14:23.794Z,15.92
2023-05-10T08:15:26.639Z,15.94
2023-05-10T08:16:28.639Z,15.92
2023-05-10T08:17:30.273Z,15.93
2023-05-10T08:18:31.748Z,15.93
2023-05-10T08:19:33.299Z,15.94
2023-05-10T08:20:34.779Z,15.93
2023-05-10T08:21:37.038Z,15.96
2023-05-10T08:22:38.575Z,15.95
2023-05-10T08:23:43.123Z,16.00
2023-05-10T08:24:47.529Z,16.06
2023-05-10T08:25:51.812Z,16.08
2023-05-10T08:26:56.018Z,16.13
2023-05-10T08:27:57.663Z,16.20
2023-05-10T08:29:01.868Z,16.28
2023-05-10T08:30:03.737Z,16.35
2023-05-10T08:31:06.137Z,16.45
2023-05-10T08:32:07.916Z,16.50
2023-05-10T08:33:09.517Z,16.54
2023-05-10T08:34:11.161Z,16.54
2023-05-10T08:35:12.608Z,16.56
2023-05-10T08:36:16.863Z,16.54
2023-05-10T08:37:18.414Z,16.47
2023-05-10T08:38:22.809Z,16.34
2023-05-10T08:39:30.269Z,16.43
2023-05-10T08:40:37.648Z,16.47
2023-05-10T08:41:43.378Z,16.50
2023-05-10T08:42:56.470Z,16.55
2023-05-10T08:43:59.308Z,16.55
2023-05-10T08:45:01.471Z,16.49
2023-05-10T08:46:06.613Z,16.47
2023-05-10T08:47:10.113Z,16.41
2023-05-10T08:48:12.250Z,16.37
2023-05-10T08:49:23.024Z,16.36
2023-05-10T08:50:26.299Z,16.38
2023-05-10T08:51:29.975Z,16.43
2023-05-10T08:52:34.001Z,16.45
2023-05-10T08:53:37.917Z,16.42
2023-05-10T08:54:39.693Z,16.41
2023-05-10T08:55:43.472Z,16.30
2023-05-10T08:56:46.139Z,16.27
2023-05-10T08:57:52.705Z,16.29
2023-05-10T08:58:54.434Z,16.27
2023-05-10T08:59:56.039Z,16.31
2023-05-10T09:00:59.579Z,16.30
2023-05-10T09:02:05.594Z,16.30
2023-05-10T09:03:07.411Z,16.31
2023-05-10T09:04:08.938Z,16.31
2023-05-10T09:05:13.314Z,16.24
2023-05-10T09:06:15.392Z,16.28
2023-05-10T09:07:17.670Z,16.29
2023-05-10T09:08:19.438Z,16.32
2023-05-10T09:09:21.637Z,16.32
2023-05-10T09:10:26.991Z,16.36
2023-05-10T09:11:30.486Z,16.39
2023-05-10T09:12:34.760Z,16.44
2023-05-10T09:13:39.064Z,16.51
2023-05-10T09:14:42.930Z,16.51
2023-05-10T09:15:48.141Z,16.58
2023-05-10T09:16:54.930Z,16.65
2023-05-10T09:17:57.229Z,16.77
2023-05-10T09:18:58.866Z,16.89
2023-05-10T09:20:01.649Z,16.99
2023-05-10T09:21:03.129Z,17.11
2023-05-10T09:22:05.051Z,17.19
2023-05-10T09:23:06.902Z,17.28
2023-05-10T09:24:09.454Z,17.38
2023-05-10T09:25:17.724Z,17.49
2023-05-10T09:26:25.879Z,17.60
2023-05-10T09:27:29.903Z,17.67
2023-05-10T09:28:59.595Z,17.68
2023-05-10T09:30:01.557Z,17.74
2023-05-10T09:31:03.505Z,17.74
2023-05-10T09:32:05.101Z,17.79
2023-05-10T09:33:06.738Z,17.86
2023-05-10T09:34:08.264Z,17.88
2023-05-10T09:35:13.070Z,17.89
2023-05-10T09:36:15.391Z,17.90
2023-05-10T09:37:16.920Z,17.91
2023-05-10T09:38:18.557Z,17.86
2023-05-10T09:39:20.536Z,17.85
2023-05-10T09:40:24.389Z,17.84
2023-05-10T09:41:28.982Z,17.86
2023-05-10T09:42:33.317Z,17.85
2023-05-10T09:43:39.379Z,17.90
2023-05-10T09:44:41.963Z,17.97
2023-05-10T09:45:49.945Z,17.97
2023-05-10T09:46:54.380Z,18.10
2023-05-10T09:48:00.045Z,18.22
2023-05-10T09:49:02.139Z,18.31
2023-05-10T09:50:06.316Z,18.33
2023-05-10T09:51:07.905Z,18.40
2023-05-10T09:52:09.398Z,18.40
2023-05-10T09:53:16.295Z,18.40
2023-05-10T09:54:20.136Z,18.49
2023-05-10T09:55:24.383Z,18.57
2023-05-10T09:56:40.758Z,18.66
2023-05-10T09:57:42.570Z,18.73
2023-05-10T09:58:44.086Z,18.79
2023-05-10T09:59:48.601Z,18.84
2023-05-10T10:00:52.595Z,18.85
2023-05-10T10:02:00.536Z,18.79
2023-05-10T10:03:05.646Z,18.78
2023-05-10T10:04:12.760Z,18.76
2023-05-10T10:05:17.690Z,18.77
2023-05-10T10:06:29.487Z,18.80
2023-05-10T10:07:32.974Z,18.87
2023-05-10T10:08:35.115Z,18.95
2023-05-10T10:09:36.673Z,18.90
2023-05-10T10:10:39.761Z,18.96
2023-05-10T10:11:44.672Z,18.99
2023-05-10T10:12:46.256Z,18.95
2023-05-10T10:13:50.812Z,18.95
2023-05-10T10:14:53.083Z,18.90
2023-05-10T10:15:55.754Z,18.90
2023-05-10T10:17:07.712Z,18.90
2023-05-10T10:18:14.530Z,18.85
2023-05-10T10:19:16.526Z,18.86
2023-05-10T10:20:23.179Z,18.87
2023-05-10T10:21:25.114Z,18.91
2023-05-10T10:22:29.882Z,18.92
2023-05-10T10:23:31.791Z,19.01
2023-05-10T10:24:33.407Z,19.09
2023-05-10T10:25:35.263Z,19.16
2023-05-10T10:26:40.152Z,19.30
2023-05-10T10:27:51.932Z,19.41
2023-05-10T10:29:12.326Z,19.50
2023-05-10T10:30:44.211Z,19.60
2023-05-10T10:32:23.210Z,19.76
2023-05-10T10:33:28.708Z,19.79
2023-05-10T10:34:31.921Z,19.76
2023-05-10T10:35:35.259Z,19.61
2023-05-10T10:36:48.035Z,19.69
2023-05-10T10:37:51.777Z,19.77
2023-05-10T10:38:54.158Z,19.86
2023-05-10T10:39:57.445Z,19.88
2023-05-10T10:41:04.389Z,19.85
2023-05-10T10:42:06.604Z,19.86
2023-05-10T10:43:29.204Z,19.80
2023-05-10T10:44:40.211Z,19.77
2023-05-10T10:45:42.350Z,19.69
2023-05-10T10:47:25.996Z,19.58
2023-05-10T10:48:27.609Z,19.49
2023-05-10T10:49:33.263Z,19.32
2023-05-10T10:50:50.909Z,19.26
2023-05-10T10:52:34.574Z,19.16
2023-05-10T10:53:40.072Z,19.08
2023-05-10T10:54:42.853Z,19.00
2023-05-10T10:55:49.054Z,18.87
2023-05-10T10:57:19.466Z,18.71
2023-05-10T10:58:34.421Z,18.60
2023-05-10T10:59:35.871Z,18.55
2023-05-10T11:00:40.921Z,18.50
2023-05-10T11:01:45.247Z,18.46
2023-05-10T11:02:52.816Z,18.41
2023-05-10T11:04:06.733Z,18.32
2023-05-10T11:05:37.859Z,18.28
2023-05-10T11:06:41.196Z,18.17
2023-05-10T11:07:59.054Z,18.17
2023-05-10T11:09:10.786Z,18.12
2023-05-10T11:10:12.413Z,18.03
2023-05-10T11:11:17.647Z,18.00
2023-05-10T11:12:21.784Z,18.01
2023-05-10T11:13:53.943Z,18.01
2023-05-10T11:14:58.531Z,18.02
2023-05-10T11:16:11.645Z,18.05
2023-05-10T11:17:28.122Z,18.06
2023-05-10T11:18:31.459Z,18.06
2023-05-10T11:19:33.043Z,18.05
2023-05-10T11:20:40.964Z,18.05
2023-05-10T11:22:07.137Z,18.04
2023-05-10T11:23:19.642Z,18.05
2023-05-10T11:24:28.598Z,18.05
2023-05-10T11:25:30.051Z,18.05
2023-05-10T11:26:33.479Z,18.04
2023-05-10T11:27:38.857Z,18.02
2023-05-10T11:28:49.270Z,17.96
2023-05-10T11:29:53.568Z,17.97
2023-05-10T11:30:57.195Z,17.96
2023-05-10T11:32:00.174Z,17.97
2023-05-10T11:33:01.853Z,17.95
2023-05-10T11:34:07.656Z,17.93
2023-05-10T11:35:11.761Z,17.92
2023-05-10T11:36:22.161Z,17.92
2023-05-10T11:37:23.745Z,17.93
2023-05-10T11:38:25.263Z,17.95
2023-05-10T11:39:33.215Z,17.96
2023-05-10T11:40:35.785Z,17.96
2023-05-10T11:41:41.636Z,17.96
2023-05-10T11:42:45.178Z,17.92
2023-05-10T11:43:54.635Z,17.94
2023-05-10T11:44:56.552Z,17.92
2023-05-10T11:46:00.374Z,17.92
2023-05-10T11:47:05.132Z,17.88
2023-05-10T11:48:12.584Z,17.90
2023-05-10T11:49:14.535Z,17.94
2023-05-10T11:50:16.380Z,17.94
2023-05-10T11:51:27.013Z,17.99
2023-05-10T11:52:31.481Z,17.97
2023-05-10T11:53:34.026Z,17.95
2023-05-10T11:54:39.093Z,17.88
2023-05-10T11:55:43.127Z,17.88
2023-05-10T11:56:45.827Z,17.89
2023-05-10T11:57:47.694Z,17.94
2023-05-10T11:58:58.453Z,17.97
2023-05-10T12:00:00.093Z,18.05
2023-05-10T12:01:05.556Z,18.13
2023-05-10T12:02:07.225Z,18.19
2023-05-10T12:03:11.669Z,18.26
2023-05-10T12:04:13.438Z,18.28
2023-05-10T12:05:15.542Z,18.32
2023-05-10T12:06:19.771Z,18.33
2023-05-10T12:07:21.357Z,18.34
2023-05-10T12:08:26.828Z,18.37
2023-05-10T12:09:42.567Z,18.39
2023-05-10T12:10:46.038Z,18.45
2023-05-10T12:11:47.475Z,18.47
2023-05-10T12:12:49.187Z,18.50
2023-05-10T12:13:51.260Z,18.55
2023-05-10T12:14:55.105Z,18.59
2023-05-10T12:16:03.436Z,18.58
2023-05-10T12:17:04.956Z,18.60
2023-05-10T12:18:10.057Z,18.61
2023-05-10T12:19:11.920Z,18.62
2023-05-10T12:20:25.095Z,18.63
2023-05-10T12:21:28.014Z,18.58
2023-05-10T12:22:29.997Z,18.56
2023-05-10T12:23:31.516Z,18.56
2023-05-10T12:24:37.559Z,18.59
2023-05-10T12:25:40.158Z,18.64
2023-05-10T12:26:41.717Z,18.65
2023-05-10T12:27:56.860Z,18.68
2023-05-10T12:29:13.941Z,18.70
2023-05-10T12:30:23.011Z,18.74
2023-05-10T12:31:24.843Z,18.80
2023-05-10T12:32:44.832Z,18.85
2023-05-10T12:33:50.284Z,18.87
2023-05-10T12:34:54.382Z,18.91
2023-05-10T12:35:57.333Z,18.91
2023-05-10T12:36:59.622Z,18.91
2023-05-10T12:38:01.136Z,18.89
2023-05-10T12:39:09.189Z,18.86
2023-05-10T12:40:14.401Z,18.90
2023-05-10T12:41:19.256Z,18.95
2023-05-10T12:42:21.092Z,18.95
2023-05-10T12:43:22.794Z,18.89
2023-05-10T12:44:26.474Z,18.88
2023-05-10T12:45:31.193Z,18.88
2023-05-10T12:46:35.503Z,18.85
2023-05-10T12:47:37.262Z,18.77
2023-05-10T12:48:42.176Z,18.73
2023-05-10T12:49:46.461Z,18.71
2023-05-10T12:50:48.620Z,18.64
2023-05-10T12:51:50.127Z,18.59
2023-05-10T12:52:51.739Z,18.60
2023-05-10T12:53:56.534Z,18.58
2023-05-10T12:55:01.675Z,18.57
2023-05-10T12:56:05.821Z,18.54
2023-05-10T12:57:07.320Z,18.54
2023-05-10T12:58:15.727Z,18.53
2023-05-10T12:59:23.815Z,18.46
2023-05-10T13:00:25.374Z,18.42
2023-05-10T13:01:26.916Z,18.39
2023-05-10T13:02:28.459Z,18.36
2023-05-10T13:03:32.883Z,18.36
2023-05-10T13:04:35.508Z,18.35
2023-05-10T13:05:40.021Z,18.29
2023-05-10T13:06:41.533Z,18.24
2023-05-10T13:07:44.825Z,18.19
2023-05-10T13:08:46.855Z,18.16
2023-05-10T13:09:48.456Z,18.15
2023-05-10T13:10:50.406Z,18.13
2023-05-10T13:11:54.416Z,18.11
2023-05-10T13:12:56.132Z,18.09
2023-05-10T13:14:00.457Z,18.08
2023-05-10T13:15:03.576Z,18.07
2023-05-10T13:16:05.781Z,18.05
2023-05-10T13:17:10.238Z,18.06
2023-05-10T13:18:12.000Z,18.06
2023-05-10T13:19:16.253Z,18.06
2023-05-10T13:20:20.508Z,18.08
2023-05-10T13:21:26.487Z,18.11
2023-05-10T13:22:39.895Z,18.13
2023-05-10T13:23:42.267Z,18.15
2023-05-10T13:24:46.327Z,18.17
2023-05-10T13:25:48.007Z,18.19
2023-05-10T13:26:50.640Z,18.15
2023-05-10T13:27:52.106Z,18.18
2023-05-10T13:28:55.015Z,18.21
2023-05-10T13:30:00.362Z,18.20
2023-05-10T13:31:02.931Z,18.22
2023-05-10T13:32:04.714Z,18.21
2023-05-10T13:33:06.389Z,18.19
2023-05-10T13:34:07.968Z,18.13
2023-05-10T13:35:09.826Z,18.13
2023-05-10T13:36:11.790Z,18.15
2023-05-10T13:37:16.338Z,18.14
2023-05-10T13:38:19.444Z,18.16
2023-05-10T13:39:21.884Z,18.16
2023-05-10T13:40:23.388Z,18.15
2023-05-10T13:41:25.253Z,18.14
2023-05-10T13:42:28.097Z,18.15
2023-05-10T13:43:30.098Z,18.13
2023-05-10T13:44:34.799Z,18.10
2023-05-10T13:45:37.309Z,18.10
2023-05-10T13:46:44.517Z,18.10
2023-05-10T13:47:49.023Z,18.07